sensor_id;sensor_type;location;lat;lon;timestamp;pressure;altitude;pressure_sealevel;temperature;humidity
77013;BME280;67260;53.130;17.982;2023-02-13T00:03:04;103003.18;;;5.82;82.15
77013;BME280;67260;53.130;17.982;2023-02-13T00:05:31;103001.77;;;5.82;82.34
77013;BME280;67260;53.130;17.982;2023-02-13T00:07:58;102996.84;;;5.80;82.28
77013;BME280;67260;53.130;17.982;2023-02-13T00:10:24;102997.55;;;5.80;82.36
77013;BME280;67260;53.130;17.982;2023-02-13T00:12:51;102997.06;;;5.79;82.26
77013;BME280;67260;53.130;17.982;2023-02-13T00:15:17;102993.85;;;5.78;82.36
77013;BME280;67260;53.130;17.982;2023-02-13T00:17:44;102995.79;;;5.77;82.41
77013;BME280;67260;53.130;17.982;2023-02-13T00:20:11;102996.20;;;5.79;82.35
77013;BME280;67260;53.130;17.982;2023-02-13T00:22:38;102995.27;;;5.80;82.10
77013;BME280;67260;53.130;17.982;2023-02-13T00:25:06;102999.34;;;5.81;82.12
77013;BME280;67260;53.130;17.982;2023-02-13T00:27:33;102992.56;;;5.83;82.18
77013;BME280;67260;53.130;17.982;2023-02-13T00:30:00;102995.02;;;5.85;82.15
77013;BME280;67260;53.130;17.982;2023-02-13T00:32:27;102991.27;;;5.86;82.03
77013;BME280;67260;53.130;17.982;2023-02-13T00:34:54;102992.88;;;5.86;81.89
77013;BME280;67260;53.130;17.982;2023-02-13T00:37:23;102995.73;;;5.85;81.82
77013;BME280;67260;53.130;17.982;2023-02-13T00:39:52;102994.00;;;5.85;81.80
77013;BME280;67260;53.130;17.982;2023-02-13T00:42:18;102988.38;;;5.85;82.08
77013;BME280;67260;53.130;17.982;2023-02-13T00:44:49;102986.66;;;5.86;81.73
77013;BME280;67260;53.130;17.982;2023-02-13T00:47:16;102985.40;;;5.89;81.49
77013;BME280;67260;53.130;17.982;2023-02-13T00:49:43;102983.98;;;5.89;81.52
77013;BME280;67260;53.130;17.982;2023-02-13T00:52:10;102976.06;;;5.87;81.50
77013;BME280;67260;53.130;17.982;2023-02-13T00:54:36;102975.75;;;5.86;81.49
77013;BME280;67260;53.130;17.982;2023-02-13T00:57:03;102976.52;;;5.85;81.42
77013;BME280;67260;53.130;17.982;2023-02-13T00:59:29;102980.49;;;5.84;81.50
77013;BME280;67260;53.130;17.982;2023-02-13T01:01:56;102976.02;;;5.83;81.53
77013;BME280;67260;53.130;17.982;2023-02-13T01:04:23;102973.46;;;5.84;81.61
77013;BME280;67260;53.130;17.982;2023-02-13T01:06:49;102973.45;;;5.84;81.33
77013;BME280;67260;53.130;17.982;2023-02-13T01:09:16;102964.63;;;5.82;81.20
77013;BME280;67260;53.130;17.982;2023-02-13T01:11:43;102963.19;;;5.81;81.32
77013;BME280;67260;53.130;17.982;2023-02-13T01:14:09;102963.45;;;5.80;81.47
77013;BME280;67260;53.130;17.982;2023-02-13T01:16:36;102963.00;;;5.79;81.39
77013;BME280;67260;53.130;17.982;2023-02-13T01:19:03;102966.98;;;5.77;81.17
77013;BME280;67260;53.130;17.982;2023-02-13T01:21:31;102964.36;;;5.77;81.19
77013;BME280;67260;53.130;17.982;2023-02-13T01:24:02;102965.92;;;5.77;80.91
77013;BME280;67260;53.130;17.982;2023-02-13T01:26:29;102962.10;;;5.77;80.80
77013;BME280;67260;53.130;17.982;2023-02-13T01:28:56;102960.09;;;5.75;81.20
77013;BME280;67260;53.130;17.982;2023-02-13T01:31:23;102960.66;;;5.73;80.96
77013;BME280;67260;53.130;17.982;2023-02-13T01:33:51;102959.13;;;5.70;80.90
77013;BME280;67260;53.130;17.982;2023-02-13T01:36:21;102958.48;;;5.69;81.14
77013;BME280;67260;53.130;17.982;2023-02-13T01:38:52;102953.43;;;5.69;81.08
77013;BME280;67260;53.130;17.982;2023-02-13T01:41:19;102951.58;;;5.72;81.02
77013;BME280;67260;53.130;17.982;2023-02-13T01:43:56;102949.77;;;5.73;80.79
77013;BME280;67260;53.130;17.982;2023-02-13T01:46:32;102949.30;;;5.72;80.69
77013;BME280;67260;53.130;17.982;2023-02-13T01:49:15;102954.39;;;5.72;80.72
77013;BME280;67260;53.130;17.982;2023-02-13T01:51:44;102953.02;;;5.72;80.52
77013;BME280;67260;53.130;17.982;2023-02-13T01:54:16;102953.85;;;5.74;80.54
77013;BME280;67260;53.130;17.982;2023-02-13T01:56:53;102950.98;;;5.77;80.42
77013;BME280;67260;53.130;17.982;2023-02-13T01:59:30;102950.27;;;5.79;80.46
77013;BME280;67260;53.130;17.982;2023-02-13T02:02:00;102945.61;;;5.81;80.19
77013;BME280;67260;53.130;17.982;2023-02-13T02:04:35;102945.11;;;5.80;80.00
77013;BME280;67260;53.130;17.982;2023-02-13T02:07:16;102942.83;;;5.80;79.92
77013;BME280;67260;53.130;17.982;2023-02-13T02:09:44;102941.10;;;5.80;79.69
77013;BME280;67260;53.130;17.982;2023-02-13T02:12:26;102941.68;;;5.81;79.60
77013;BME280;67260;53.130;17.982;2023-02-13T02:14:57;102935.41;;;5.83;79.43
77013;BME280;67260;53.130;17.982;2023-02-13T02:17:26;102937.74;;;5.82;79.56
77013;BME280;67260;53.130;17.982;2023-02-13T02:20:03;102935.48;;;5.82;79.64
77013;BME280;67260;53.130;17.982;2023-02-13T02:38:33;102942.13;;;5.76;79.53
77013;BME280;67260;53.130;17.982;2023-02-13T02:40:51;102943.33;;;5.76;79.33
77013;BME280;67260;53.130;17.982;2023-02-13T02:46:33;102945.75;;;5.74;79.36
77013;BME280;67260;53.130;17.982;2023-02-13T02:49:13;102944.98;;;5.75;79.29
77013;BME280;67260;53.130;17.982;2023-02-13T02:52:13;102942.50;;;5.76;79.31
77013;BME280;67260;53.130;17.982;2023-02-13T02:54:44;102942.92;;;5.79;79.44
77013;BME280;67260;53.130;17.982;2023-02-13T02:57:39;102943.69;;;5.83;79.39
77013;BME280;67260;53.130;17.982;2023-02-13T03:00:28;102941.60;;;5.84;79.30
77013;BME280;67260;53.130;17.982;2023-02-13T03:03:21;102934.63;;;5.86;79.29
77013;BME280;67260;53.130;17.982;2023-02-13T03:09:05;102933.83;;;5.85;79.06
77013;BME280;67260;53.130;17.982;2023-02-13T03:11:55;102935.04;;;5.83;78.93
77013;BME280;67260;53.130;17.982;2023-02-13T03:14:41;102936.30;;;5.83;78.81
77013;BME280;67260;53.130;17.982;2023-02-13T03:17:11;102937.63;;;5.84;78.90
77013;BME280;67260;53.130;17.982;2023-02-13T03:20:14;102936.49;;;5.85;78.59
77013;BME280;67260;53.130;17.982;2023-02-13T03:28:48;102946.38;;;5.82;78.56
77013;BME280;67260;53.130;17.982;2023-02-13T03:31:53;102946.69;;;5.83;78.58
77013;BME280;67260;53.130;17.982;2023-02-13T03:34:31;102944.17;;;5.83;78.98
77013;BME280;67260;53.130;17.982;2023-02-13T03:37:26;102949.27;;;5.85;78.71
77013;BME280;67260;53.130;17.982;2023-02-13T03:42:55;102948.65;;;5.84;78.86
77013;BME280;67260;53.130;17.982;2023-02-13T03:45:29;102954.14;;;5.84;78.92
77013;BME280;67260;53.130;17.982;2023-02-13T03:48:23;102956.18;;;5.85;78.99
77013;BME280;67260;53.130;17.982;2023-02-13T03:51:16;102961.41;;;5.85;79.04
77013;BME280;67260;53.130;17.982;2023-02-13T03:53:46;102959.41;;;5.86;78.92
77013;BME280;67260;53.130;17.982;2023-02-13T03:56:15;102960.98;;;5.86;78.99
77013;BME280;67260;53.130;17.982;2023-02-13T03:59:04;102957.52;;;5.86;79.08
77013;BME280;67260;53.130;17.982;2023-02-13T04:02:07;102960.19;;;5.83;79.40
77013;BME280;67260;53.130;17.982;2023-02-13T04:04:48;102964.21;;;5.83;79.38
77013;BME280;67260;53.130;17.982;2023-02-13T04:07:18;102960.58;;;5.83;79.54
77013;BME280;67260;53.130;17.982;2023-02-13T04:09:57;102959.80;;;5.83;79.42
77013;BME280;67260;53.130;17.982;2023-02-13T04:15:15;102958.06;;;5.81;79.66
77013;BME280;67260;53.130;17.982;2023-02-13T04:17:48;102960.16;;;5.81;79.65
77013;BME280;67260;53.130;17.982;2023-02-13T04:20:17;102959.09;;;5.81;79.87
77013;BME280;67260;53.130;17.982;2023-02-13T04:22:45;102956.49;;;5.81;79.78
77013;BME280;67260;53.130;17.982;2023-02-13T04:25:15;102956.40;;;5.82;79.77
77013;BME280;67260;53.130;17.982;2023-02-13T04:27:42;102956.90;;;5.82;79.49
77013;BME280;67260;53.130;17.982;2023-02-13T04:30:09;102953.30;;;5.83;79.40
77013;BME280;67260;53.130;17.982;2023-02-13T04:32:37;102951.08;;;5.85;79.49
77013;BME280;67260;53.130;17.982;2023-02-13T04:35:03;102951.02;;;5.85;79.45
77013;BME280;67260;53.130;17.982;2023-02-13T04:37:30;102950.73;;;5.85;79.53
77013;BME280;67260;53.130;17.982;2023-02-13T04:39:57;102955.10;;;5.85;79.75
77013;BME280;67260;53.130;17.982;2023-02-13T04:42:23;102954.84;;;5.84;79.60
77013;BME280;67260;53.130;17.982;2023-02-13T04:44:50;102958.02;;;5.84;79.66
77013;BME280;67260;53.130;17.982;2023-02-13T04:47:17;102959.23;;;5.84;79.60
77013;BME280;67260;53.130;17.982;2023-02-13T04:49:43;102958.29;;;5.85;79.49
77013;BME280;67260;53.130;17.982;2023-02-13T04:52:10;102958.02;;;5.86;79.72
77013;BME280;67260;53.130;17.982;2023-02-13T04:54:36;102958.24;;;5.85;79.39
77013;BME280;67260;53.130;17.982;2023-02-13T04:57:03;102950.73;;;5.82;79.30
77013;BME280;67260;53.130;17.982;2023-02-13T04:59:30;102957.74;;;5.81;79.43
77013;BME280;67260;53.130;17.982;2023-02-13T05:01:56;102952.77;;;5.79;79.31
77013;BME280;67260;53.130;17.982;2023-02-13T05:04:24;102952.18;;;5.80;79.26
77013;BME280;67260;53.130;17.982;2023-02-13T05:06:51;102952.23;;;5.81;79.55
77013;BME280;67260;53.130;17.982;2023-02-13T05:09:17;102953.49;;;5.83;79.42
77013;BME280;67260;53.130;17.982;2023-02-13T05:11:44;102952.35;;;5.84;79.18
77013;BME280;67260;53.130;17.982;2023-02-13T05:14:11;102955.94;;;5.86;79.32
77013;BME280;67260;53.130;17.982;2023-02-13T05:16:37;102957.26;;;5.85;79.19
77013;BME280;67260;53.130;17.982;2023-02-13T05:19:04;102959.23;;;5.84;79.16
77013;BME280;67260;53.130;17.982;2023-02-13T05:21:30;102965.66;;;5.83;78.99
77013;BME280;67260;53.130;17.982;2023-02-13T05:24:16;102963.09;;;5.82;78.95
77013;BME280;67260;53.130;17.982;2023-02-13T05:26:42;102964.23;;;5.83;79.13
77013;BME280;67260;53.130;17.982;2023-02-13T05:29:09;102958.95;;;5.83;78.84
77013;BME280;67260;53.130;17.982;2023-02-13T05:31:46;102961.15;;;5.82;78.89
77013;BME280;67260;53.130;17.982;2023-02-13T05:34:13;102959.03;;;5.82;78.95
77013;BME280;67260;53.130;17.982;2023-02-13T05:36:40;102959.85;;;5.81;78.80
77013;BME280;67260;53.130;17.982;2023-02-13T05:39:06;102957.48;;;5.80;78.83
77013;BME280;67260;53.130;17.982;2023-02-13T05:41:33;102957.48;;;5.82;78.77
77013;BME280;67260;53.130;17.982;2023-02-13T05:44:00;102961.01;;;5.82;78.58
77013;BME280;67260;53.130;17.982;2023-02-13T05:46:26;102957.42;;;5.80;78.53
77013;BME280;67260;53.130;17.982;2023-02-13T05:48:53;102956.02;;;5.80;78.73
77013;BME280;67260;53.130;17.982;2023-02-13T05:51:20;102955.38;;;5.80;78.71
77013;BME280;67260;53.130;17.982;2023-02-13T05:53:46;102961.89;;;5.79;78.67
77013;BME280;67260;53.130;17.982;2023-02-13T05:56:13;102964.80;;;5.80;78.52
77013;BME280;67260;53.130;17.982;2023-02-13T05:58:39;102963.04;;;5.83;78.61
77013;BME280;67260;53.130;17.982;2023-02-13T06:01:06;102960.77;;;5.83;78.61
77013;BME280;67260;53.130;17.982;2023-02-13T06:03:33;102957.17;;;5.83;78.64
77013;BME280;67260;53.130;17.982;2023-02-13T06:05:59;102956.80;;;5.84;78.47
77013;BME280;67260;53.130;17.982;2023-02-13T06:08:26;102951.41;;;5.83;78.21
77013;BME280;67260;53.130;17.982;2023-02-13T06:10:53;102950.42;;;5.80;78.46
77013;BME280;67260;53.130;17.982;2023-02-13T06:13:19;102955.87;;;5.78;78.53
77013;BME280;67260;53.130;17.982;2023-02-13T06:15:46;102959.41;;;5.75;78.56
77013;BME280;67260;53.130;17.982;2023-02-13T06:18:13;102961.67;;;5.75;78.40
77013;BME280;67260;53.130;17.982;2023-02-13T06:20:39;102962.92;;;5.77;78.34
77013;BME280;67260;53.130;17.982;2023-02-13T06:23:06;102969.52;;;5.79;78.31
77013;BME280;67260;53.130;17.982;2023-02-13T06:25:34;102970.16;;;5.79;78.12
77013;BME280;67260;53.130;17.982;2023-02-13T06:28:02;102971.07;;;5.79;77.93
77013;BME280;67260;53.130;17.982;2023-02-13T06:30:30;102973.88;;;5.79;77.96
77013;BME280;67260;53.130;17.982;2023-02-13T06:32:56;102978.10;;;5.79;77.97
77013;BME280;67260;53.130;17.982;2023-02-13T06:35:23;102982.41;;;5.80;77.84
77013;BME280;67260;53.130;17.982;2023-02-13T06:37:50;102980.59;;;5.79;77.81
77013;BME280;67260;53.130;17.982;2023-02-13T06:40:17;102983.18;;;5.81;77.91
77013;BME280;67260;53.130;17.982;2023-02-13T06:42:44;102988.48;;;5.85;78.16
77013;BME280;67260;53.130;17.982;2023-02-13T06:45:12;102991.95;;;5.89;77.84
77013;BME280;67260;53.130;17.982;2023-02-13T06:47:41;102989.13;;;5.91;77.52
77013;BME280;67260;53.130;17.982;2023-02-13T06:50:08;102985.75;;;5.92;77.66
77013;BME280;67260;53.130;17.982;2023-02-13T06:52:35;102990.64;;;5.92;77.81
77013;BME280;67260;53.130;17.982;2023-02-13T06:55:02;102988.80;;;5.93;77.44
77013;BME280;67260;53.130;17.982;2023-02-13T06:57:30;102991.55;;;5.92;77.81
77013;BME280;67260;53.130;17.982;2023-02-13T06:59:59;102987.65;;;5.92;77.44
77013;BME280;67260;53.130;17.982;2023-02-13T07:02:26;102994.21;;;5.94;77.38
77013;BME280;67260;53.130;17.982;2023-02-13T07:04:52;102993.74;;;5.95;77.37
77013;BME280;67260;53.130;17.982;2023-02-13T07:07:19;102995.95;;;5.96;77.43
77013;BME280;67260;53.130;17.982;2023-02-13T07:09:46;102995.85;;;5.97;77.06
77013;BME280;67260;53.130;17.982;2023-02-13T07:12:12;102997.60;;;5.98;77.19
77013;BME280;67260;53.130;17.982;2023-02-13T07:14:39;102998.25;;;5.98;77.25
77013;BME280;67260;53.130;17.982;2023-02-13T07:17:06;102994.98;;;6.00;77.28
77013;BME280;67260;53.130;17.982;2023-02-13T07:19:32;102999.09;;;6.01;76.78
77013;BME280;67260;53.130;17.982;2023-02-13T07:21:59;103001.81;;;6.02;76.73
77013;BME280;67260;53.130;17.982;2023-02-13T07:24:26;102999.38;;;6.04;76.93
77013;BME280;67260;53.130;17.982;2023-02-13T07:26:52;103000.19;;;6.05;76.57
77013;BME280;67260;53.130;17.982;2023-02-13T07:29:19;103003.95;;;6.04;76.69
77013;BME280;67260;53.130;17.982;2023-02-13T07:31:45;102999.40;;;6.04;76.71
77013;BME280;67260;53.130;17.982;2023-02-13T07:34:12;102997.34;;;6.03;76.34
77013;BME280;67260;53.130;17.982;2023-02-13T07:36:39;102994.55;;;6.05;76.35
77013;BME280;67260;53.130;17.982;2023-02-13T07:39:05;102994.02;;;6.07;76.45
77013;BME280;67260;53.130;17.982;2023-02-13T07:41:32;102991.62;;;6.11;76.43
77013;BME280;67260;53.130;17.982;2023-02-13T07:43:59;102993.13;;;6.14;76.27
77013;BME280;67260;53.130;17.982;2023-02-13T07:46:26;102988.85;;;6.17;76.09
77013;BME280;67260;53.130;17.982;2023-02-13T07:48:52;102989.65;;;6.18;75.64
77013;BME280;67260;53.130;17.982;2023-02-13T07:51:19;102983.00;;;6.17;75.62
77013;BME280;67260;53.130;17.982;2023-02-13T07:53:51;102987.76;;;6.20;75.25
77013;BME280;67260;53.130;17.982;2023-02-13T07:56:20;102984.22;;;6.22;75.48
77013;BME280;67260;53.130;17.982;2023-02-13T07:58:47;102981.94;;;6.23;75.48
77013;BME280;67260;53.130;17.982;2023-02-13T08:01:15;102980.46;;;6.27;75.61
77013;BME280;67260;53.130;17.982;2023-02-13T08:03:42;102979.23;;;6.29;75.00
77013;BME280;67260;53.130;17.982;2023-02-13T08:06:08;102981.30;;;6.30;75.23
77013;BME280;67260;53.130;17.982;2023-02-13T08:08:35;102978.73;;;6.31;75.21
77013;BME280;67260;53.130;17.982;2023-02-13T08:11:18;102968.52;;;6.35;75.04
77013;BME280;67260;53.130;17.982;2023-02-13T08:14:06;102969.21;;;6.39;74.42
77013;BME280;67260;53.130;17.982;2023-02-13T08:16:33;102968.62;;;6.41;74.52
77013;BME280;67260;53.130;17.982;2023-02-13T08:18:59;102969.63;;;6.41;74.56
77013;BME280;67260;53.130;17.982;2023-02-13T08:21:26;102962.27;;;6.41;74.62
77013;BME280;67260;53.130;17.982;2023-02-13T08:23:52;102955.94;;;6.43;74.35
77013;BME280;67260;53.130;17.982;2023-02-13T08:26:19;102956.63;;;6.47;74.43
77013;BME280;67260;53.130;17.982;2023-02-13T08:28:46;102954.77;;;6.52;74.44
77013;BME280;67260;53.130;17.982;2023-02-13T08:31:13;102955.32;;;6.56;74.34
77013;BME280;67260;53.130;17.982;2023-02-13T08:33:39;102960.07;;;6.59;73.94
77013;BME280;67260;53.130;17.982;2023-02-13T08:36:07;102958.82;;;6.59;73.94
77013;BME280;67260;53.130;17.982;2023-02-13T08:38:34;102957.78;;;6.59;73.72
77013;BME280;67260;53.130;17.982;2023-02-13T08:41:00;102956.69;;;6.61;73.77
77013;BME280;67260;53.130;17.982;2023-02-13T08:43:27;102957.34;;;6.64;73.28
77013;BME280;67260;53.130;17.982;2023-02-13T08:45:57;102957.36;;;6.66;73.15
77013;BME280;67260;53.130;17.982;2023-02-13T08:48:26;102958.28;;;6.68;72.70
77013;BME280;67260;53.130;17.982;2023-02-13T08:50:53;102954.04;;;6.66;72.66
77013;BME280;67260;53.130;17.982;2023-02-13T08:53:19;102954.94;;;6.63;72.49
77013;BME280;67260;53.130;17.982;2023-02-13T08:55:56;102950.28;;;6.64;72.81
77013;BME280;67260;53.130;17.982;2023-02-13T08:58:23;102951.70;;;6.69;72.84
77013;BME280;67260;53.130;17.982;2023-02-13T09:00:49;102945.88;;;6.71;72.60
77013;BME280;67260;53.130;17.982;2023-02-13T09:03:17;102948.81;;;6.72;72.92
77013;BME280;67260;53.130;17.982;2023-02-13T09:05:43;102953.56;;;6.71;72.50
77013;BME280;67260;53.130;17.982;2023-02-13T09:08:10;102959.52;;;6.72;72.30
77013;BME280;67260;53.130;17.982;2023-02-13T09:10:40;102961.10;;;6.74;72.75
77013;BME280;67260;53.130;17.982;2023-02-13T09:13:07;102964.65;;;6.78;72.20
77013;BME280;67260;53.130;17.982;2023-02-13T09:15:37;102961.73;;;6.81;72.58
77013;BME280;67260;53.130;17.982;2023-02-13T09:18:06;102957.15;;;6.81;71.89
77013;BME280;67260;53.130;17.982;2023-02-13T09:20:33;102955.09;;;6.81;71.51
77013;BME280;67260;53.130;17.982;2023-02-13T09:22:59;102957.61;;;6.80;71.90
77013;BME280;67260;53.130;17.982;2023-02-13T09:25:26;102962.29;;;6.81;72.01
77013;BME280;67260;53.130;17.982;2023-02-13T09:27:52;102961.23;;;6.83;71.76
77013;BME280;67260;53.130;17.982;2023-02-13T09:30:19;102963.44;;;6.86;71.73
77013;BME280;67260;53.130;17.982;2023-02-13T09:32:53;102960.41;;;6.93;71.60
77013;BME280;67260;53.130;17.982;2023-02-13T09:35:21;102959.23;;;7.03;71.80
77013;BME280;67260;53.130;17.982;2023-02-13T09:37:48;102963.79;;;7.07;70.98
77013;BME280;67260;53.130;17.982;2023-02-13T09:40:52;102963.67;;;7.07;70.97
77013;BME280;67260;53.130;17.982;2023-02-13T09:43:32;102956.75;;;7.09;71.12
77013;BME280;67260;53.130;17.982;2023-02-13T09:46:06;102957.18;;;7.12;70.81
77013;BME280;67260;53.130;17.982;2023-02-13T09:48:38;102957.80;;;7.13;71.36
77013;BME280;67260;53.130;17.982;2023-02-13T09:51:13;102958.23;;;7.16;70.70
77013;BME280;67260;53.130;17.982;2023-02-13T09:53:47;102959.95;;;7.19;70.56
77013;BME280;67260;53.130;17.982;2023-02-13T09:56:21;102961.55;;;7.21;70.34
77013;BME280;67260;53.130;17.982;2023-02-13T09:59:05;102962.70;;;7.22;71.10
77013;BME280;67260;53.130;17.982;2023-02-13T10:01:40;102967.26;;;7.29;70.14
77013;BME280;67260;53.130;17.982;2023-02-13T10:04:39;102965.89;;;7.30;70.23
77013;BME280;67260;53.130;17.982;2023-02-13T10:10:06;102967.56;;;7.35;70.23
77013;BME280;67260;53.130;17.982;2023-02-13T10:18:02;102957.38;;;7.67;69.66
77013;BME280;67260;53.130;17.982;2023-02-13T10:20:42;102958.05;;;7.74;68.99
77013;BME280;67260;53.130;17.982;2023-02-13T10:23:18;102959.22;;;7.75;69.32
77013;BME280;67260;53.130;17.982;2023-02-13T10:25:57;102960.78;;;7.77;68.82
77013;BME280;67260;53.130;17.982;2023-02-13T10:28:43;102964.44;;;7.77;68.37
77013;BME280;67260;53.130;17.982;2023-02-13T10:31:11;102964.66;;;7.77;69.00
77013;BME280;67260;53.130;17.982;2023-02-13T10:33:46;102970.03;;;7.76;68.72
77013;BME280;67260;53.130;17.982;2023-02-13T10:36:18;102968.66;;;7.74;68.47
77013;BME280;67260;53.130;17.982;2023-02-13T10:39:22;102965.11;;;7.72;68.75
77013;BME280;67260;53.130;17.982;2023-02-13T10:41:53;102968.93;;;7.68;68.57
77013;BME280;67260;53.130;17.982;2023-02-13T10:51:11;102952.01;;;7.64;68.13
77013;BME280;67260;53.130;17.982;2023-02-13T10:56:04;102949.52;;;7.62;68.59
77013;BME280;67260;53.130;17.982;2023-02-13T10:58:46;102951.98;;;7.63;67.88
77013;BME280;67260;53.130;17.982;2023-02-13T11:01:26;102948.48;;;7.64;68.49
77013;BME280;67260;53.130;17.982;2023-02-13T11:04:17;102945.33;;;7.62;67.61
77013;BME280;67260;53.130;17.982;2023-02-13T11:06:58;102953.91;;;7.59;67.11
77013;BME280;67260;53.130;17.982;2023-02-13T11:09:26;102950.41;;;7.60;67.45
77013;BME280;67260;53.130;17.982;2023-02-13T11:11:53;102944.64;;;7.60;67.25
77013;BME280;67260;53.130;17.982;2023-02-13T11:14:20;102936.45;;;7.61;67.61
77013;BME280;67260;53.130;17.982;2023-02-13T11:17:01;102939.50;;;7.62;67.77
77013;BME280;67260;53.130;17.982;2023-02-13T11:19:50;102939.23;;;7.63;67.83
77013;BME280;67260;53.130;17.982;2023-02-13T11:22:30;102943.33;;;7.65;67.56
77013;BME280;67260;53.130;17.982;2023-02-13T11:25:24;102941.45;;;7.64;66.82
77013;BME280;67260;53.130;17.982;2023-02-13T11:27:49;102937.83;;;7.59;66.64
77013;BME280;67260;53.130;17.982;2023-02-13T11:33:05;102926.25;;;7.56;66.83
77013;BME280;67260;53.130;17.982;2023-02-13T11:35:34;102926.03;;;7.57;66.88
77013;BME280;67260;53.130;17.982;2023-02-13T11:38:22;102929.91;;;7.54;66.71
77013;BME280;67260;53.130;17.982;2023-02-13T11:41:05;102935.66;;;7.55;66.71
77013;BME280;67260;53.130;17.982;2023-02-13T11:43:35;102940.85;;;7.54;66.35
77013;BME280;67260;53.130;17.982;2023-02-13T11:48:31;102927.48;;;7.60;66.79
77013;BME280;67260;53.130;17.982;2023-02-13T11:50:58;102927.30;;;7.68;67.25
77013;BME280;67260;53.130;17.982;2023-02-13T11:53:29;102926.73;;;7.71;66.03
77013;BME280;67260;53.130;17.982;2023-02-13T11:56:02;102913.20;;;7.72;66.20
77013;BME280;67260;53.130;17.982;2023-02-13T11:58:30;102912.44;;;7.69;64.99
77013;BME280;67260;53.130;17.982;2023-02-13T12:04:12;102903.48;;;7.71;66.70
77013;BME280;67260;53.130;17.982;2023-02-13T12:07:43;102903.08;;;7.75;66.03
77013;BME280;67260;53.130;17.982;2023-02-13T12:09:46;102904.25;;;7.76;66.55
77013;BME280;67260;53.130;17.982;2023-02-13T12:12:18;102906.27;;;7.81;66.37
77013;BME280;67260;53.130;17.982;2023-02-13T12:14:48;102898.57;;;7.80;65.18
77013;BME280;67260;53.130;17.982;2023-02-13T12:17:19;102891.13;;;7.80;65.62
77013;BME280;67260;53.130;17.982;2023-02-13T12:19:49;102890.23;;;7.87;65.86
77013;BME280;67260;53.130;17.982;2023-02-13T12:22:52;102886.91;;;7.93;65.61
77013;BME280;67260;53.130;17.982;2023-02-13T12:25:38;102873.01;;;7.92;66.09
77013;BME280;67260;53.130;17.982;2023-02-13T12:28:36;102863.98;;;7.96;66.00
77013;BME280;67260;53.130;17.982;2023-02-13T12:31:11;102864.44;;;7.95;65.38
77013;BME280;67260;53.130;17.982;2023-02-13T12:37:00;102846.98;;;7.83;65.06
77013;BME280;67260;53.130;17.982;2023-02-13T12:39:34;102844.92;;;7.78;65.08
77013;BME280;67260;53.130;17.982;2023-02-13T12:47:28;102851.65;;;7.70;65.45
77013;BME280;67260;53.130;17.982;2023-02-13T12:50:32;102854.31;;;7.68;66.12
77013;BME280;67260;53.130;17.982;2023-02-13T12:56:00;102860.14;;;7.60;66.01
77013;BME280;67260;53.130;17.982;2023-02-13T12:58:56;102863.83;;;7.56;66.02
77013;BME280;67260;53.130;17.982;2023-02-13T13:01:58;102863.64;;;7.50;66.23
77013;BME280;67260;53.130;17.982;2023-02-13T13:05:01;102860.16;;;7.44;66.28
77013;BME280;67260;53.130;17.982;2023-02-13T13:10:42;102852.70;;;7.40;66.72
77013;BME280;67260;53.130;17.982;2023-02-13T13:24:22;102879.38;;;7.30;66.77
77013;BME280;67260;53.130;17.982;2023-02-13T13:26:51;102879.56;;;7.24;66.72
77013;BME280;67260;53.130;17.982;2023-02-13T13:32:17;102869.45;;;7.14;66.44
77013;BME280;67260;53.130;17.982;2023-02-13T13:34:45;102865.30;;;7.15;66.03
77013;BME280;67260;53.130;17.982;2023-02-13T13:37:27;102864.75;;;7.16;66.26
77013;BME280;67260;53.130;17.982;2023-02-13T13:43:00;102850.52;;;7.13;65.85
77013;BME280;67260;53.130;17.982;2023-02-13T13:48:49;102871.15;;;7.11;65.91
77013;BME280;67260;53.130;17.982;2023-02-13T13:51:21;102871.20;;;7.06;65.56
77013;BME280;67260;53.130;17.982;2023-02-13T14:05:19;102882.47;;;6.96;66.06
77013;BME280;67260;53.130;17.982;2023-02-13T14:07:49;102879.16;;;6.93;66.05
77013;BME280;67260;53.130;17.982;2023-02-13T14:12:58;102896.18;;;6.84;65.73
77013;BME280;67260;53.130;17.982;2023-02-13T14:25:47;102897.45;;;6.67;64.53
77013;BME280;67260;53.130;17.982;2023-02-13T14:28:23;102896.02;;;6.63;64.25
77013;BME280;67260;53.130;17.982;2023-02-13T14:30:52;102885.06;;;6.61;64.72
77013;BME280;67260;53.130;17.982;2023-02-13T14:33:30;102880.94;;;6.64;64.84
77013;BME280;67260;53.130;17.982;2023-02-13T14:38:26;102877.29;;;6.64;65.05
77013;BME280;67260;53.130;17.982;2023-02-13T14:40:54;102877.23;;;6.60;64.86
77013;BME280;67260;53.130;17.982;2023-02-13T14:43:31;102877.34;;;6.59;64.59
77013;BME280;67260;53.130;17.982;2023-02-13T14:48:55;102866.22;;;6.61;64.84
77013;BME280;67260;53.130;17.982;2023-02-13T14:54:05;102872.61;;;6.58;64.47
77013;BME280;67260;53.130;17.982;2023-02-13T14:56:36;102873.48;;;6.56;64.68
77013;BME280;67260;53.130;17.982;2023-02-13T14:59:15;102874.16;;;6.57;65.00
77013;BME280;67260;53.130;17.982;2023-02-13T15:04:28;102876.64;;;6.50;65.03
77013;BME280;67260;53.130;17.982;2023-02-13T15:06:58;102867.77;;;6.49;64.78
77013;BME280;67260;53.130;17.982;2023-02-13T15:09:37;102860.94;;;6.50;64.57
77013;BME280;67260;53.130;17.982;2023-02-13T15:14:51;102856.23;;;6.50;64.94
77013;BME280;67260;53.130;17.982;2023-02-13T15:17:21;102850.55;;;6.48;64.87
77013;BME280;67260;53.130;17.982;2023-02-13T15:19:51;102845.64;;;6.46;64.67
77013;BME280;67260;53.130;17.982;2023-02-13T15:22:40;102834.90;;;6.44;65.50
77013;BME280;67260;53.130;17.982;2023-02-13T15:25:39;102824.44;;;6.41;65.40
77013;BME280;67260;53.130;17.982;2023-02-13T15:28:14;102838.34;;;6.37;65.28
77013;BME280;67260;53.130;17.982;2023-02-13T15:30:59;102833.61;;;6.32;65.22